createdAt,value
2017-06-25T00:01:16.971Z,17.20
2017-06-25T00:03:44.434Z,17.10
2017-06-25T00:06:11.887Z,17.20
2017-06-25T00:08:39.362Z,17.20
2017-06-25T00:11:06.810Z,17.30
2017-06-25T00:13:34.360Z,17.30
2017-06-25T00:16:01.814Z,17.40
2017-06-25T00:18:29.274Z,17.40
2017-06-25T00:20:56.729Z,17.40
2017-06-25T00:23:24.278Z,17.60
2017-06-25T00:25:51.747Z,17.90
2017-06-25T00:28:19.230Z,18.00
2017-06-25T00:30:46.698Z,18.10
2017-06-25T00:33:14.145Z,18.10
2017-06-25T00:35:41.616Z,18.20
2017-06-25T00:38:09.067Z,18.20
2017-06-25T00:40:36.532Z,18.30
2017-06-25T00:43:03.979Z,18.30
2017-06-25T00:45:31.445Z,18.40
2017-06-25T00:47:58.905Z,18.40
2017-06-25T00:50:26.370Z,18.40
2017-06-25T00:52:59.674Z,18.40
2017-06-25T00:55:27.142Z,18.40
2017-06-25T00:57:54.602Z,18.50
2017-06-25T01:00:22.059Z,18.40
2017-06-25T01:02:49.522Z,18.30
2017-06-25T01:05:16.991Z,18.40
2017-06-25T01:07:44.540Z,18.30
2017-06-25T01:10:11.995Z,18.30
2017-06-25T01:12:39.461Z,18.30
2017-06-25T01:15:07.734Z,18.20
2017-06-25T01:17:35.199Z,18.20
2017-06-25T01:20:03.430Z,18.30
2017-06-25T01:22:30.886Z,18.30
2017-06-25T01:24:58.370Z,18.30
2017-06-25T01:27:25.926Z,18.40
2017-06-25T01:29:53.387Z,18.30
2017-06-25T01:32:20.856Z,18.30
2017-06-25T01:34:49.120Z,18.20
2017-06-25T01:37:16.583Z,18.20
2017-06-25T01:39:44.142Z,18.20
2017-06-25T01:42:11.596Z,18.20
2017-06-25T01:44:39.823Z,18.10
2017-06-25T01:47:07.278Z,18.10
2017-06-25T01:49:34.734Z,18.20
2017-06-25T01:52:02.195Z,18.10
2017-06-25T01:54:29.654Z,18.10
2017-06-25T01:56:57.103Z,18.10
2017-06-25T01:59:24.584Z,18.10
2017-06-25T02:01:52.161Z,18.10
2017-06-25T02:04:19.615Z,18.20
2017-06-25T02:06:47.071Z,18.20
2017-06-25T02:09:14.535Z,18.20
2017-06-25T02:11:42.000Z,18.20
2017-06-25T02:14:10.216Z,18.20
2017-06-25T02:16:37.673Z,18.20
2017-06-25T02:19:05.168Z,18.20
2017-06-25T02:21:32.639Z,18.20
2017-06-25T02:24:00.894Z,18.00
2017-06-25T02:26:28.353Z,18.00
2017-06-25T02:28:55.907Z,18.00
2017-06-25T02:31:23.398Z,17.90
2017-06-25T02:33:50.930Z,17.90
2017-06-25T02:36:18.383Z,18.00
2017-06-25T02:38:45.846Z,18.10
2017-06-25T02:41:13.299Z,18.10
2017-06-25T02:43:40.854Z,18.10
2017-06-25T02:46:08.407Z,18.10
2017-06-25T02:48:35.974Z,18.10
2017-06-25T02:51:03.427Z,18.20
2017-06-25T02:53:30.902Z,18.20
2017-06-25T02:55:59.160Z,18.20
2017-06-25T02:58:26.617Z,18.20
2017-06-25T03:00:54.075Z,18.20
2017-06-25T03:03:21.565Z,18.20
2017-06-25T03:05:49.087Z,18.10
2017-06-25T03:08:16.641Z,18.20
2017-06-25T03:10:44.208Z,18.20
2017-06-25T03:13:11.682Z,18.10
2017-06-25T03:15:39.138Z,18.20
2017-06-25T03:18:07.391Z,18.00
2017-06-25T03:20:34.850Z,18.00
2017-06-25T03:23:02.307Z,18.00
2017-06-25T03:25:29.771Z,18.10
2017-06-25T03:27:58.035Z,18.30
2017-06-25T03:30:25.498Z,18.30
2017-06-25T03:32:52.945Z,18.30
2017-06-25T03:35:20.431Z,18.40
2017-06-25T03:37:48.683Z,18.50
2017-06-25T03:40:16.138Z,18.50
2017-06-25T03:42:43.700Z,18.40
2017-06-25T03:45:11.950Z,18.50
2017-06-25T03:47:39.435Z,18.50
2017-06-25T03:50:07.670Z,18.70
2017-06-25T03:52:35.143Z,18.60
2017-06-25T03:55:02.601Z,18.70
2017-06-25T03:57:30.070Z,18.80
2017-06-25T03:59:57.523Z,19.00
2017-06-25T04:02:24.991Z,19.20
2017-06-25T04:04:52.541Z,19.20
2017-06-25T04:07:20.098Z,19.10
2017-06-25T04:09:47.562Z,19.20
2017-06-25T04:12:15.018Z,19.20
2017-06-25T04:14:42.491Z,19.20
2017-06-25T04:17:10.728Z,19.30
2017-06-25T04:19:38.190Z,19.30
2017-06-25T04:22:05.758Z,19.30
2017-06-25T04:24:33.307Z,19.30
2017-06-25T04:27:00.766Z,19.30
2017-06-25T04:29:28.230Z,19.20
2017-06-25T07:32:37.585Z,24.10
2017-06-25T07:35:05.035Z,24.10
2017-06-25T07:37:32.494Z,24.10
2017-06-25T07:40:00.038Z,24.60
2017-06-25T07:42:27.482Z,24.40
2017-06-25T07:44:54.948Z,24.20
2017-06-25T07:47:22.405Z,24.20
2017-06-25T07:49:49.871Z,24.30
2017-06-25T07:52:17.321Z,24.40
2017-06-25T07:54:44.788Z,23.90
2017-06-25T07:57:12.247Z,24.00
2017-06-25T07:59:39.716Z,24.00
2017-06-25T08:02:07.166Z,24.10
2017-06-25T08:04:34.622Z,24.20
2017-06-25T08:07:02.082Z,23.90
2017-06-25T08:09:29.547Z,24.20
2017-06-25T08:11:57.003Z,24.70
2017-06-25T08:14:24.449Z,24.80
2017-06-25T08:16:51.910Z,24.80
2017-06-25T08:19:19.362Z,24.50
2017-06-25T08:21:46.934Z,24.70
2017-06-25T08:24:14.386Z,24.60
2017-06-25T08:26:41.951Z,24.30
2017-06-25T08:29:09.414Z,24.20
2017-06-25T08:31:36.890Z,23.90
2017-06-25T08:34:05.108Z,24.20
2017-06-25T08:36:32.572Z,24.20
2017-06-25T08:39:00.055Z,24.30
2017-06-25T08:41:27.510Z,24.40
2017-06-25T08:43:54.966Z,24.80
2017-06-25T08:46:22.421Z,25.10
2017-06-25T08:48:49.882Z,25.00
2017-06-25T08:51:17.335Z,25.00
2017-06-25T08:53:44.790Z,25.00
2017-06-25T08:56:12.251Z,25.10
2017-06-25T08:58:39.807Z,24.90
2017-06-25T09:01:07.262Z,24.80
2017-06-25T09:03:34.723Z,25.00
2017-06-25T09:06:02.169Z,25.00
2017-06-25T09:08:29.643Z,25.00
2017-06-25T09:10:57.098Z,25.20
2017-06-25T09:13:25.314Z,25.30
2017-06-25T09:15:52.781Z,25.30
2017-06-25T09:18:20.230Z,24.80
2017-06-25T09:20:47.696Z,24.80
2017-06-25T09:23:15.146Z,25.20
2017-06-25T09:25:42.612Z,25.20
2017-06-25T09:28:10.095Z,25.10
2017-06-25T09:30:37.561Z,24.60
2017-06-25T09:33:05.015Z,24.90
2017-06-25T09:35:32.507Z,25.00
2017-06-25T09:37:59.958Z,25.00
2017-06-25T09:40:27.474Z,25.00
2017-06-25T09:42:54.931Z,25.40
2017-06-25T09:45:22.494Z,25.50
2017-06-25T09:47:49.970Z,25.40
2017-06-25T09:50:18.190Z,25.60
2017-06-25T09:52:45.658Z,25.50
2017-06-25T09:55:13.101Z,25.80
2017-06-25T09:57:40.579Z,26.20
2017-06-25T10:00:08.035Z,26.30
2017-06-25T10:02:35.489Z,25.60
2017-06-25T10:05:02.946Z,25.50
2017-06-25T10:07:30.395Z,25.50
2017-06-25T10:09:57.857Z,25.30
2017-06-25T10:12:25.309Z,25.40
2017-06-25T10:14:52.771Z,25.40
2017-06-25T10:17:20.226Z,25.80
2017-06-25T10:19:47.688Z,25.60
2017-06-25T10:22:15.140Z,25.40
2017-06-25T10:24:42.600Z,24.80
2017-06-25T10:27:10.056Z,24.70
2017-06-25T10:29:37.522Z,24.90
2017-06-25T10:32:04.983Z,24.80
2017-06-25T10:34:32.462Z,24.70
2017-06-25T10:37:00.687Z,24.40
2017-06-25T10:39:28.136Z,24.40
2017-06-25T10:41:55.606Z,24.80
2017-06-25T10:44:23.063Z,25.60
2017-06-25T10:46:50.634Z,26.50
2017-06-25T10:49:18.094Z,26.30
2017-06-25T10:51:45.550Z,26.20
2017-06-25T10:54:13.002Z,26.20
2017-06-25T10:56:40.470Z,26.00
2017-06-25T10:59:08.707Z,26.00
2017-06-25T11:01:36.157Z,26.00
2017-06-25T11:04:03.647Z,25.70
2017-06-25T11:06:31.106Z,25.90
2017-06-25T11:08:58.558Z,25.60
2017-06-25T11:11:26.039Z,25.60
2017-06-25T11:13:54.263Z,25.30
2017-06-25T11:16:21.711Z,25.20
2017-06-25T11:18:49.202Z,25.50
2017-06-25T11:21:16.651Z,25.60
2017-06-25T11:23:44.227Z,25.80
2017-06-25T11:26:11.675Z,25.80
2017-06-25T11:28:39.146Z,25.90
2017-06-25T11:31:06.590Z,25.50
2017-06-25T11:33:34.054Z,25.50
2017-06-25T11:36:01.508Z,25.50
2017-06-25T11:38:28.974Z,25.50
2017-06-25T11:40:57.225Z,25.80
2017-06-25T11:43:24.708Z,25.80
2017-06-25T11:45:52.918Z,26.70
2017-06-25T11:48:20.377Z,26.60
2017-06-25T11:50:47.833Z,26.70
2017-06-25T11:53:15.281Z,26.80
2017-06-25T11:55:42.746Z,26.80
2017-06-25T11:58:10.765Z,26.70
2017-06-25T12:00:38.218Z,26.50
2017-06-25T12:03:05.772Z,26.30
2017-06-25T12:05:33.235Z,25.80
2017-06-25T12:08:01.190Z,25.50
2017-06-25T12:10:28.660Z,25.60
2017-06-25T12:12:56.199Z,25.80
2017-06-25T12:15:23.675Z,25.90
2017-06-25T12:17:51.130Z,26.00
2017-06-25T12:20:19.357Z,26.10
2017-06-25T12:22:46.815Z,26.10
2017-06-25T12:25:14.271Z,26.40
2017-06-25T12:27:41.732Z,26.10
2017-06-25T12:30:09.187Z,26.40
2017-06-25T12:32:36.645Z,26.20
2017-06-25T12:35:04.095Z,26.10
2017-06-25T12:37:31.555Z,26.40
2017-06-25T12:39:59.029Z,26.80
2017-06-25T12:42:26.491Z,26.80
2017-06-25T12:44:53.939Z,26.40
2017-06-25T12:47:21.423Z,26.50
2017-06-25T12:49:48.870Z,26.20
2017-06-25T12:52:16.322Z,25.90
2017-06-25T12:54:43.874Z,26.30
2017-06-25T12:57:11.331Z,26.30
2017-06-25T12:59:38.787Z,26.60
2017-06-25T13:02:06.235Z,26.80
2017-06-25T13:04:33.704Z,27.20
2017-06-25T13:07:01.149Z,26.80
2017-06-25T13:09:28.711Z,26.80
2017-06-25T13:11:56.270Z,26.60
2017-06-25T13:14:23.853Z,26.60
2017-06-25T13:16:51.294Z,25.90
2017-06-25T13:19:18.815Z,25.80
2017-06-25T13:21:46.270Z,25.90
2017-06-25T13:24:13.762Z,26.10
2017-06-25T13:26:41.220Z,26.00
2017-06-25T13:29:08.675Z,26.10
2017-06-25T13:31:36.135Z,26.10
2017-06-25T13:34:03.587Z,26.40
2017-06-25T13:36:31.046Z,26.30
2017-06-25T13:38:59.271Z,26.70
2017-06-25T13:41:26.731Z,26.70
2017-06-25T13:43:54.230Z,26.90
2017-06-25T13:46:21.690Z,26.50
2017-06-25T13:48:49.155Z,26.60
2017-06-25T13:51:16.627Z,26.40
2017-06-25T13:53:44.846Z,26.70
2017-06-25T13:56:12.304Z,26.60
2017-06-25T13:58:39.784Z,27.10
2017-06-25T14:01:07.247Z,26.90
2017-06-25T14:03:34.711Z,27.20
2017-06-25T14:06:02.167Z,27.10
2017-06-25T14:08:30.397Z,26.90
2017-06-25T14:10:57.855Z,26.80
2017-06-25T14:13:25.302Z,26.60
2017-06-25T14:15:52.760Z,26.80
2017-06-25T14:18:20.258Z,26.80
2017-06-25T14:20:47.707Z,26.90
2017-06-25T14:23:15.166Z,26.90
2017-06-25T14:25:42.623Z,27.20
2017-06-25T14:28:10.081Z,27.20
2017-06-25T14:30:37.630Z,27.00
2017-06-25T14:33:05.082Z,26.70
2017-06-25T14:35:32.542Z,26.60
2017-06-25T14:38:00.002Z,26.30
2017-06-25T14:40:27.462Z,26.90
2017-06-25T14:42:54.917Z,27.00
2017-06-25T14:45:22.394Z,27.00
2017-06-25T14:47:50.655Z,26.20
2017-06-25T14:50:18.112Z,26.20
2017-06-25T14:52:45.671Z,26.00
2017-06-25T14:55:13.126Z,25.80
2017-06-25T14:57:40.683Z,26.00
2017-06-25T15:00:08.150Z,25.90
2017-06-25T15:02:35.602Z,25.90
2017-06-25T15:05:03.057Z,25.70
2017-06-25T15:07:30.518Z,25.70
2017-06-25T15:09:58.744Z,25.70
2017-06-25T15:12:26.197Z,25.70
2017-06-25T15:14:53.659Z,25.80
2017-06-25T15:17:21.147Z,25.80
2017-06-25T15:19:48.610Z,25.80
2017-06-25T15:22:16.161Z,25.60
2017-06-25T15:24:43.620Z,25.80
2017-06-25T15:27:11.067Z,25.60
2017-06-25T15:29:38.526Z,25.20
2017-06-25T15:32:05.987Z,25.20
2017-06-25T15:34:33.446Z,25.10
2017-06-25T15:37:00.904Z,24.80
2017-06-25T15:39:28.366Z,24.70
2017-06-25T15:41:55.819Z,24.70
2017-06-25T15:44:23.288Z,24.70
2017-06-25T15:46:51.839Z,24.60
2017-06-25T15:49:19.287Z,24.60
2017-06-25T15:51:47.588Z,24.60
2017-06-25T15:54:15.622Z,24.70
2017-06-25T15:56:43.121Z,24.50
2017-06-25T15:59:11.567Z,24.70
2017-06-25T16:01:40.694Z,24.60
2017-06-25T16:04:08.981Z,24.40
2017-06-25T16:06:37.382Z,24.50
2017-06-25T16:09:06.112Z,24.50
2017-06-25T16:11:35.566Z,24.60
2017-06-25T16:14:03.210Z,24.60
2017-06-25T16:16:34.154Z,24.50
2017-06-25T16:19:02.481Z,24.60
2017-06-25T16:21:29.942Z,24.60
2017-06-25T16:23:57.635Z,24.50
2017-06-25T16:26:26.018Z,25.50
2017-06-25T16:28:54.256Z,26.00
2017-06-25T16:31:21.730Z,26.00
2017-06-25T16:33:49.202Z,26.20
2017-06-25T16:36:16.666Z,26.60
2017-06-25T16:38:44.910Z,26.30
2017-06-25T16:41:12.378Z,26.30
2017-06-25T16:43:39.864Z,26.30
2017-06-25T16:46:07.330Z,26.10
2017-06-25T16:48:34.849Z,26.30
2017-06-25T16:51:02.330Z,26.10
2017-06-25T16:53:30.554Z,25.10
2017-06-25T16:55:58.121Z,25.00
2017-06-25T16:58:25.590Z,24.60
2017-06-25T17:00:53.054Z,24.30
2017-06-25T17:03:20.507Z,24.30
2017-06-25T17:05:47.999Z,24.20
2017-06-25T17:08:16.419Z,24.20
2017-06-25T17:10:44.034Z,24.20
2017-06-25T17:13:11.557Z,24.20
2017-06-25T17:15:39.084Z,24.20
2017-06-25T17:18:06.674Z,24.20
2017-06-25T17:20:34.285Z,24.20
2017-06-25T17:23:01.821Z,24.20
2017-06-25T17:25:30.028Z,24.10
2017-06-25T17:27:57.487Z,24.10
2017-06-25T17:30:24.951Z,24.00
2017-06-25T17:32:52.441Z,24.10
2017-06-25T17:35:20.657Z,24.10
2017-06-25T17:37:48.116Z,24.00
2017-06-25T17:40:15.583Z,24.00
2017-06-25T17:42:43.066Z,24.00
2017-06-25T17:45:10.622Z,24.00
2017-06-25T17:47:38.074Z,23.90
2017-06-25T17:50:05.535Z,24.00
2017-06-25T17:52:33.440Z,24.00
2017-06-25T17:55:01.666Z,23.80
2017-06-25T17:57:29.128Z,23.80
2017-06-25T17:59:56.599Z,23.70
2017-06-25T18:02:26.186Z,23.70
2017-06-25T18:04:53.763Z,23.60
2017-06-25T18:07:21.219Z,23.60
2017-06-25T18:09:51.582Z,23.60
2017-06-25T18:12:19.671Z,23.50
2017-06-25T18:14:48.135Z,23.50
2017-06-25T18:17:16.848Z,23.40
2017-06-25T18:19:45.335Z,23.40
2017-06-25T18:22:12.809Z,23.40
2017-06-25T18:24:40.254Z,23.40
2017-06-25T18:27:08.751Z,23.40
2017-06-25T18:29:36.475Z,23.40
2017-06-25T18:32:03.942Z,23.30
2017-06-25T18:34:31.399Z,23.30
2017-06-25T18:36:59.742Z,23.20
2017-06-25T18:39:27.217Z,23.20
2017-06-25T18:41:55.721Z,23.20
2017-06-25T18:44:23.171Z,23.20
2017-06-25T18:46:50.655Z,23.20
2017-06-25T18:49:18.123Z,23.20
2017-06-25T18:51:45.581Z,23.20
2017-06-25T18:54:13.052Z,23.10
2017-06-25T18:56:41.163Z,23.00
2017-06-25T18:59:08.662Z,23.00
2017-06-25T19:01:36.107Z,23.00
2017-06-25T19:04:03.604Z,23.00
2017-06-25T19:06:31.075Z,23.00
2017-06-25T19:08:58.547Z,22.90
2017-06-25T19:11:26.270Z,22.80
2017-06-25T19:13:53.737Z,22.70
2017-06-25T19:16:21.192Z,22.80
2017-06-25T19:18:48.722Z,22.80
2017-06-25T19:21:17.427Z,22.70
2017-06-25T19:23:44.946Z,22.70
2017-06-25T19:26:12.415Z,22.70
2017-06-25T19:28:39.860Z,22.70
2017-06-25T19:31:08.648Z,22.70
2017-06-25T19:33:36.106Z,22.70
2017-06-25T19:36:03.582Z,22.60
2017-06-25T19:38:31.833Z,22.50
2017-06-25T19:40:59.667Z,22.40
2017-06-25T19:43:27.126Z,22.40
2017-06-25T19:45:54.587Z,22.40
2017-06-25T19:48:22.047Z,22.30
2017-06-25T19:50:49.512Z,22.30
2017-06-25T19:53:16.966Z,22.30
2017-06-25T19:55:45.467Z,22.30
2017-06-25T19:58:12.909Z,22.30
2017-06-25T20:00:40.360Z,22.30
2017-06-25T20:03:07.820Z,22.20
2017-06-25T20:05:35.275Z,22.20
2017-06-25T20:08:02.734Z,22.20
2017-06-25T20:10:30.192Z,22.20
2017-06-25T20:12:57.647Z,22.20
2017-06-25T20:15:25.111Z,22.20
2017-06-25T20:17:52.570Z,22.20
2017-06-25T20:20:20.031Z,22.20
2017-06-25T20:22:47.490Z,22.10
2017-06-25T20:25:14.950Z,22.10
2017-06-25T20:27:42.406Z,22.10
2017-06-25T20:30:10.670Z,22.10
2017-06-25T20:32:38.933Z,22.10
2017-06-25T20:35:06.384Z,22.10
2017-06-25T20:37:33.843Z,22.10
2017-06-25T20:40:01.303Z,22.10
2017-06-25T20:42:28.872Z,22.10
2017-06-25T20:44:56.327Z,22.10
2017-06-25T20:47:23.786Z,22.00
2017-06-25T20:49:51.254Z,21.90
2017-06-25T20:52:18.699Z,21.90
2017-06-25T20:54:46.167Z,21.90
2017-06-25T20:57:13.619Z,21.80
2017-06-25T20:59:41.082Z,21.60
2017-06-25T21:02:08.529Z,21.50
2017-06-25T21:04:35.993Z,21.50
2017-06-25T21:07:04.250Z,21.50
2017-06-25T21:09:31.718Z,21.50
2017-06-25T21:11:59.949Z,21.20
2017-06-25T21:14:27.408Z,21.20
2017-06-25T21:16:54.883Z,21.20
2017-06-25T21:19:22.334Z,21.20
2017-06-25T21:21:49.790Z,21.20
2017-06-25T21:24:17.246Z,21.20
2017-06-25T21:26:44.710Z,21.20
2017-06-25T21:29:12.175Z,21.10
2017-06-25T21:31:39.646Z,21.10
2017-06-25T21:34:07.866Z,21.00
2017-06-25T21:36:35.322Z,21.00
2017-06-25T21:39:02.790Z,20.90
2017-06-25T21:41:30.239Z,20.80
2017-06-25T21:43:57.698Z,20.80
2017-06-25T21:46:25.151Z,20.70
2017-06-25T21:48:52.607Z,20.60
2017-06-25T21:51:20.098Z,20.50
2017-06-25T21:53:47.571Z,20.40
2017-06-25T21:56:15.789Z,20.30
2017-06-25T21:58:43.254Z,20.30
2017-06-25T22:02:36.290Z,20.30
2017-06-25T22:05:03.759Z,20.30
2017-06-25T22:07:31.219Z,20.20
2017-06-25T22:09:58.679Z,20.10
2017-06-25T22:12:26.142Z,20.00
2017-06-25T22:14:53.602Z,19.90
2017-06-25T22:17:21.062Z,19.90
2017-06-25T22:19:48.530Z,19.80
2017-06-25T22:22:15.986Z,19.80
2017-06-25T22:24:43.442Z,19.90
2017-06-25T22:27:10.902Z,19.90
2017-06-25T22:29:38.374Z,19.90
2017-06-25T22:32:05.843Z,19.90
2017-06-25T22:34:33.300Z,19.80
2017-06-25T22:37:01.526Z,19.80
2017-06-25T22:39:29.006Z,19.80
2017-06-25T22:41:56.570Z,19.80
2017-06-25T22:44:24.026Z,19.90
2017-06-25T22:46:51.482Z,19.90
2017-06-25T22:49:18.938Z,19.80
2017-06-25T22:51:46.395Z,19.90
2017-06-25T22:54:13.864Z,19.90
2017-06-25T22:56:42.087Z,19.80
2017-06-25T22:59:09.550Z,19.80
2017-06-25T23:01:37.018Z,19.70
2017-06-25T23:04:04.495Z,19.60
2017-06-25T23:06:31.953Z,19.60
2017-06-25T23:08:59.411Z,19.60
2017-06-25T23:11:26.863Z,19.60
2017-06-25T23:13:54.318Z,19.70
2017-06-25T23:16:21.778Z,19.50
2017-06-25T23:18:49.243Z,19.40
2017-06-25T23:21:16.697Z,19.40
2017-06-25T23:23:44.922Z,19.40
2017-06-25T23:26:12.418Z,19.40
2017-06-25T23:28:39.875Z,19.30
2017-06-25T23:31:07.344Z,19.40
2017-06-25T23:33:35.574Z,19.30
2017-06-25T23:36:03.038Z,19.30
2017-06-25T23:38:30.503Z,19.30
2017-06-25T23:40:57.962Z,19.20
2017-06-25T23:43:25.535Z,19.10
2017-06-25T23:45:52.991Z,19.00
2017-06-25T23:48:20.470Z,19.00
2017-06-25T23:50:47.918Z,19.00
2017-06-25T23:53:16.162Z,19.00
2017-06-25T23:55:43.602Z,19.00
2017-06-25T23:58:11.098Z,19.00
